Sterling, VA (20165)

12:43 AM EDT on April 22, 2018 (GMT -0400)
Glen Heather | | Change Station

Elev 249 ft 39.05 °N, 77.40 °W | Updated 26 seconds ago

Partly Cloudy
Partly Cloudy
46.7 °F
Feels Like 47 °F
N
0.0
Wind Variable Wind from WNW

Today
High -- | Low -- °F
--% Chance of Precip.
Yesterday
High -- | Low -- °F
Precip. -- in
Pressure 30.38 in
Visibility 10.0 miles
Clouds Overcast 14000 ft
Windchill 47 °F
Dew Point 36 °F
Humidity 68%
Rainfall 0.00 in
Snow Depth Not available.
6:23 AM 7:53 PM
Waxing Crescent, 42% visible
METAR KIAD 220352Z 22003KT 10SM OVC140 08/03 A3037 RMK AO2 SLP285 T00830028
Pressure 30.38 in
Visibility 10.0 miles
Clouds Overcast 14000 ft
Windchill 47 °F
Dew Point 36 °F
Humidity 68%
Rainfall 0.00 in
Snow Depth Not available.
6:23 AM 7:53 PM
Waxing Crescent, 42% visible
METAR KIAD 220352Z 22003KT 10SM OVC140 08/03 A3037 RMK AO2 SLP285 T00830028

Get Severe Weather Alerts

Thanks for signing up!

Be on the lookout for a verification email in your inbox.

You'll start receiving the daily forecast at 6 AM.

×

10-Day Weather Forecast

Almanac

Astronomy

Apr. 22, 2018 Rise Set
Actual Time
Civil Twilight
Nautical Twilight
Astronomical Twilight
Moon
Length of Visible Light
Length of Day
Tomorrow will be .
, % of the Moon is Illuminated

Today's Extremes

State Highs State Lows

Community

WunderPhotos

Category 6

Welcome to Category 6. This is the collective home for Weather Underground's featured writeups by Dr. Jeff Masters (right), Bob Henson (left), Chris Burt, and other regular contributors.

Nearby

Air Quality

  Air Quality AQ Index Pollutant
Not available.

Snow Depth

Station Depth Elevation

Earthquake Activity

City Distance Mag. Time & Date
Minimum magnitude displayed is 2.5.

Coastal Water Temperatures

Place Temperature

Stations

Nearby Weather Stations

Station Location Temp. Windchill Dew Point Humidity Wind Precip. Elev Updated Type
                   

Watches & Warnings

There are currently no watches in effect.